createdAt,value
2017-09-08T03:32:02.621Z,12.80
2017-09-08T03:34:30.977Z,12.90
2017-09-08T03:36:58.569Z,12.90
2017-09-08T03:39:26.421Z,13.00
2017-09-08T03:41:54.769Z,13.60
2017-09-08T03:44:22.353Z,13.50
2017-09-08T03:46:50.773Z,13.40
2017-09-08T03:49:18.358Z,13.40
2017-09-08T03:51:45.951Z,13.40
2017-09-08T03:54:14.343Z,13.10
2017-09-08T03:56:41.929Z,13.10
2017-09-08T03:59:09.519Z,12.70
2017-09-08T04:01:37.155Z,12.70
2017-09-08T04:04:04.738Z,12.50
2017-09-08T04:06:32.333Z,12.40
2017-09-08T04:08:59.953Z,12.50
2017-09-08T04:11:27.537Z,12.90
2017-09-08T04:13:55.886Z,13.60
2017-09-08T04:16:23.698Z,13.60
2017-09-08T04:18:51.281Z,13.90
2017-09-08T04:21:18.873Z,14.20
2017-09-08T04:23:46.616Z,14.00
2017-09-08T04:26:14.209Z,14.00
2017-09-08T04:28:42.561Z,13.60
2017-09-08T04:31:10.181Z,13.50
2017-09-08T04:33:37.769Z,13.40
2017-09-08T04:36:05.354Z,13.50
2017-09-08T04:38:32.994Z,13.70
2017-09-08T04:41:00.633Z,13.70
2017-09-08T04:43:28.222Z,13.40
2017-09-08T04:45:55.858Z,13.20
2017-09-08T04:48:23.446Z,13.20
2017-09-08T04:50:51.029Z,13.10
2017-09-08T04:53:19.551Z,13.00
2017-09-08T04:55:47.133Z,12.90
2017-09-08T04:58:14.714Z,13.00
2017-09-08T05:00:43.309Z,13.30
2017-09-08T05:03:11.659Z,13.30
2017-09-08T05:05:39.249Z,13.30
2017-09-08T05:08:07.646Z,13.40
2017-09-08T05:10:35.240Z,13.40
2017-09-08T05:13:02.827Z,13.50
2017-09-08T05:15:31.199Z,13.40
2017-09-08T05:17:58.794Z,13.40
2017-09-08T05:20:26.413Z,13.40
2017-09-08T05:22:54.002Z,13.50
2017-09-08T05:25:21.593Z,13.60
2017-09-08T05:27:49.214Z,13.80
2017-09-08T05:30:17.565Z,13.90
2017-09-08T05:32:45.154Z,13.90
2017-09-08T05:35:12.785Z,13.90
2017-09-08T05:37:40.370Z,13.90
2017-09-08T05:40:07.953Z,13.80
2017-09-08T05:42:35.606Z,13.90
2017-09-08T05:45:03.197Z,13.90
2017-09-08T05:47:31.392Z,13.90
2017-09-08T05:49:59.257Z,13.90
2017-09-08T05:52:26.845Z,13.90
2017-09-08T05:54:54.430Z,13.90
2017-09-08T05:57:22.057Z,13.80
2017-09-08T05:59:50.410Z,13.90
2017-09-08T06:02:17.993Z,13.90
2017-09-08T06:04:46.581Z,14.00
2017-09-08T06:07:14.165Z,13.90
2017-09-08T06:09:41.750Z,14.10
2017-09-08T06:12:09.680Z,14.20
2017-09-08T06:14:37.322Z,14.20
2017-09-08T06:17:05.673Z,14.10
2017-09-08T06:19:34.073Z,14.10
2017-09-08T06:22:02.440Z,14.20
2017-09-08T06:24:30.798Z,14.10
2017-09-08T06:26:58.698Z,14.10
2017-09-08T06:29:26.290Z,14.20
2017-09-08T06:31:53.881Z,14.20
2017-09-08T06:34:21.516Z,14.30
2017-09-08T06:36:49.105Z,14.30
2017-09-08T06:39:16.694Z,14.40
2017-09-08T06:41:44.330Z,14.50
2017-09-08T06:44:11.921Z,14.50
2017-09-08T06:46:40.266Z,14.40
2017-09-08T06:49:07.914Z,14.40
2017-09-08T06:51:35.497Z,14.40
2017-09-08T06:54:03.854Z,14.30
2017-09-08T06:56:31.486Z,14.30
2017-09-08T06:58:59.065Z,14.40
2017-09-08T07:01:26.661Z,14.50
2017-09-08T07:03:55.061Z,14.60
2017-09-08T07:06:22.654Z,14.50
2017-09-08T07:08:51.002Z,14.50
2017-09-08T07:11:18.642Z,14.50
2017-09-08T07:13:46.226Z,14.50
2017-09-08T07:16:13.810Z,14.70
2017-09-08T07:18:41.509Z,14.80
2017-09-08T07:21:09.852Z,15.10
2017-09-08T07:23:37.434Z,15.00
2017-09-08T07:26:05.808Z,15.40
2017-09-08T07:28:33.389Z,15.40
2017-09-08T07:31:01.918Z,15.70
2017-09-08T07:33:29.492Z,15.70
2017-09-08T07:35:57.073Z,15.80
2017-09-08T07:38:24.698Z,15.90
2017-09-08T07:40:52.278Z,16.00
2017-09-08T07:43:19.862Z,16.00
2017-09-08T07:45:48.610Z,16.20
2017-09-08T07:48:16.194Z,16.10
2017-09-08T07:50:44.542Z,15.80
2017-09-08T07:53:12.177Z,15.80
2017-09-08T07:55:39.770Z,15.80
2017-09-08T07:58:07.353Z,15.80
2017-09-08T08:00:35.837Z,15.90
2017-09-08T08:03:03.417Z,15.90
2017-09-08T08:05:30.998Z,16.00
2017-09-08T08:07:58.621Z,16.00
2017-09-08T08:10:26.213Z,16.00
2017-09-08T08:12:53.793Z,15.90
2017-09-08T08:15:21.425Z,15.90
2017-09-08T08:17:49.004Z,16.00
2017-09-08T08:20:16.586Z,16.10
2017-09-08T08:22:44.223Z,16.20
2017-09-08T08:25:11.805Z,16.20
2017-09-08T08:27:39.385Z,16.20
2017-09-08T08:30:07.770Z,16.20
2017-09-08T08:32:36.138Z,16.20
2017-09-08T08:35:03.717Z,16.10
2017-09-08T08:37:31.352Z,16.30
2017-09-08T08:39:59.697Z,16.50
2017-09-08T08:42:27.283Z,16.50
2017-09-08T08:44:55.822Z,16.80
2017-09-08T08:47:23.406Z,16.80
2017-09-08T08:49:50.989Z,16.80
2017-09-08T08:52:18.654Z,16.80
2017-09-08T08:54:47.025Z,16.90
2017-09-08T08:57:15.377Z,16.90
2017-09-08T08:59:43.007Z,16.90
2017-09-08T09:02:10.589Z,17.20
2017-09-08T09:04:38.181Z,17.30
2017-09-08T09:07:06.575Z,17.30
2017-09-08T09:09:34.178Z,17.30
2017-09-08T09:12:02.525Z,17.20
2017-09-08T09:14:30.150Z,17.20
2017-09-08T09:16:58.494Z,17.00
2017-09-08T09:19:26.077Z,17.00
2017-09-08T09:21:53.710Z,17.00
2017-09-08T09:24:21.290Z,17.00
2017-09-08T09:26:48.877Z,17.00
2017-09-08T09:29:17.264Z,16.90
2017-09-08T09:31:44.848Z,16.90
2017-09-08T09:34:12.433Z,16.90
2017-09-08T09:36:40.038Z,17.00
2017-09-08T09:39:07.635Z,17.10
2017-09-08T09:41:35.361Z,17.30
2017-09-08T09:44:02.937Z,17.30
2017-09-08T09:46:30.522Z,17.40
2017-09-08T09:48:58.154Z,17.50
2017-09-08T09:51:25.733Z,17.50
2017-09-08T09:53:53.317Z,17.70
2017-09-08T09:56:21.017Z,17.70
2017-09-08T09:58:48.596Z,17.60
2017-09-08T10:01:16.178Z,17.60
2017-09-08T10:03:43.977Z,17.70
2017-09-08T10:06:12.323Z,17.90
2017-09-08T10:08:39.918Z,17.90
2017-09-08T10:11:08.493Z,18.00
2017-09-08T10:13:36.077Z,18.00
2017-09-08T10:16:03.668Z,17.90
2017-09-08T10:18:31.290Z,17.90
2017-09-08T10:20:58.874Z,17.70
2017-09-08T10:23:26.457Z,17.70
2017-09-08T10:25:54.073Z,17.60
2017-09-08T10:28:21.657Z,17.50
2017-09-08T10:30:49.238Z,17.50
2017-09-08T10:33:16.862Z,17.50
2017-09-08T10:35:44.449Z,17.40
2017-09-08T10:38:12.025Z,17.40
2017-09-08T10:40:39.638Z,17.20
2017-09-08T10:43:07.218Z,17.00
2017-09-08T10:45:34.801Z,16.90
2017-09-08T10:48:02.681Z,16.90
2017-09-08T10:50:31.057Z,16.80
2017-09-08T10:52:59.437Z,16.70
2017-09-08T10:55:28.022Z,16.60
2017-09-08T10:57:55.605Z,16.60
2017-09-08T11:00:23.186Z,16.70
2017-09-08T11:02:50.815Z,16.70
2017-09-08T11:05:18.402Z,16.90
2017-09-08T11:07:45.978Z,17.00
2017-09-08T11:10:13.586Z,17.10
2017-09-08T11:12:41.929Z,17.10
2017-09-08T11:15:09.817Z,17.10
2017-09-08T11:17:38.170Z,17.30
2017-09-08T11:20:05.750Z,17.30
2017-09-08T11:22:34.434Z,17.60
2017-09-08T11:25:02.015Z,17.60
2017-09-08T11:27:29.595Z,17.70
2017-09-08T11:29:57.208Z,17.70
2017-09-08T11:32:31.386Z,17.70
2017-09-08T11:35:04.637Z,17.70
2017-09-08T11:37:32.217Z,17.70
2017-09-08T11:39:59.797Z,17.80
2017-09-08T11:42:27.702Z,18.00
2017-09-08T11:44:56.045Z,18.10
2017-09-08T11:47:23.630Z,18.10
2017-09-08T11:49:52.025Z,17.80
2017-09-08T11:52:19.605Z,17.80
2017-09-08T11:54:47.185Z,17.80
2017-09-08T11:57:15.666Z,17.80
2017-09-08T11:59:43.241Z,17.70
2017-09-08T12:02:10.817Z,17.80
2017-09-08T12:04:39.210Z,17.80
2017-09-08T12:07:07.565Z,17.80
2017-09-08T12:09:35.145Z,17.80
2017-09-08T12:12:03.513Z,18.00
2017-09-08T12:14:31.861Z,18.20
2017-09-08T12:16:59.502Z,18.20
2017-09-08T12:19:27.089Z,18.40
2017-09-08T12:21:54.672Z,18.50
2017-09-08T12:24:23.061Z,18.70
2017-09-08T12:26:50.646Z,18.70
2017-09-08T12:29:18.225Z,18.60
2017-09-08T12:31:45.849Z,18.60
2017-09-08T12:34:13.437Z,18.50
2017-09-08T12:36:41.026Z,18.50
2017-09-08T12:39:08.904Z,18.50
2017-09-08T12:41:36.494Z,18.20
2017-09-08T12:44:04.074Z,18.00
2017-09-08T12:46:31.701Z,17.90
2017-09-08T12:48:59.277Z,17.90
2017-09-08T12:51:26.888Z,17.80
2017-09-08T12:53:54.545Z,17.60
2017-09-08T12:56:22.133Z,17.50
2017-09-08T12:58:50.504Z,17.40
2017-09-08T13:01:18.112Z,17.40
2017-09-08T13:03:46.462Z,17.10
2017-09-08T13:06:14.077Z,17.20
2017-09-08T13:08:41.661Z,17.00
2017-09-08T13:11:10.010Z,16.90
2017-09-08T13:13:37.639Z,16.90
2017-09-08T13:16:05.226Z,17.00
2017-09-08T13:18:32.809Z,17.20
2017-09-08T13:21:01.449Z,17.80
2017-09-08T13:23:29.038Z,17.80
2017-09-08T13:25:57.390Z,18.20
2017-09-08T13:28:24.994Z,18.20
2017-09-08T13:30:52.603Z,18.20
2017-09-08T13:33:20.994Z,17.90
2017-09-08T13:35:48.582Z,17.90
2017-09-08T13:38:16.937Z,17.80
2017-09-08T13:40:44.558Z,17.70
2017-09-08T13:43:12.137Z,17.60
2017-09-08T13:45:39.733Z,17.60
2017-09-08T13:48:08.145Z,17.50
2017-09-08T13:50:35.738Z,17.50
2017-09-08T13:53:03.318Z,17.50
2017-09-08T13:55:30.937Z,17.60
2017-09-08T13:57:58.523Z,17.60
2017-09-08T14:00:26.106Z,17.70
2017-09-08T14:02:54.484Z,17.80
2017-09-08T14:05:22.877Z,17.80
2017-09-08T14:07:50.458Z,17.70
2017-09-08T14:10:18.042Z,17.70
2017-09-08T14:12:45.671Z,17.60
2017-09-08T14:15:13.258Z,17.70
2017-09-08T14:17:41.610Z,17.50
2017-09-08T14:20:09.238Z,17.50
2017-09-08T14:22:37.594Z,17.30
2017-09-08T14:25:05.174Z,17.30
2017-09-08T14:27:32.814Z,17.40
2017-09-08T14:30:00.403Z,17.40
2017-09-08T14:32:27.986Z,17.40
2017-09-08T14:34:55.609Z,17.40
2017-09-08T14:37:23.185Z,17.50
2017-09-08T14:39:50.774Z,17.50
2017-09-08T14:42:18.406Z,17.70
2017-09-08T14:44:45.986Z,17.60
2017-09-08T14:47:13.574Z,17.70
2017-09-08T14:49:41.179Z,17.70
2017-09-08T14:52:08.766Z,17.80
2017-09-08T14:54:36.411Z,17.80
2017-09-08T14:57:03.993Z,17.70
2017-09-08T14:59:31.578Z,17.50
2017-09-08T15:01:59.207Z,17.40
2017-09-08T15:04:26.795Z,17.30
2017-09-08T15:06:54.386Z,17.30
2017-09-08T15:09:22.038Z,17.40
2017-09-08T15:11:50.382Z,17.30
2017-09-08T15:14:17.961Z,17.30
2017-09-08T15:16:46.345Z,17.40
2017-09-08T15:19:14.698Z,17.50
2017-09-08T15:21:42.285Z,17.50
2017-09-08T15:24:10.673Z,17.50
2017-09-08T15:26:38.262Z,17.50
2017-09-08T15:29:05.845Z,17.50
2017-09-08T15:31:33.457Z,17.40
2017-09-08T15:34:01.037Z,17.40
2017-09-08T15:36:28.617Z,17.30
2017-09-08T15:38:56.241Z,17.30
2017-09-08T15:41:23.873Z,17.20
2017-09-08T15:43:52.222Z,17.30
2017-09-08T15:46:19.909Z,17.30
2017-09-08T15:48:48.265Z,17.20
2017-09-08T15:51:15.858Z,17.20
2017-09-08T15:53:43.474Z,17.20
2017-09-08T15:56:11.066Z,17.20
2017-09-08T15:58:39.414Z,17.10
2017-09-08T16:01:07.022Z,17.10
2017-09-08T16:03:34.610Z,17.10
2017-09-08T16:06:02.234Z,17.00
2017-09-08T16:08:29.827Z,16.90
2017-09-08T16:10:57.414Z,16.80
2017-09-08T16:13:25.037Z,16.80
2017-09-08T16:15:52.619Z,16.70
2017-09-08T16:18:20.202Z,16.60
2017-09-08T16:20:48.597Z,16.60
2017-09-08T16:23:16.181Z,16.50
2017-09-08T16:25:43.770Z,16.60
2017-09-08T16:28:11.574Z,16.60
2017-09-08T16:30:39.923Z,16.50
2017-09-08T16:33:07.505Z,16.50
2017-09-08T16:35:36.086Z,16.40
2017-09-08T16:38:04.437Z,16.40
2017-09-08T16:40:32.018Z,16.40
2017-09-08T16:43:00.403Z,16.20
2017-09-08T16:45:28.778Z,16.20
2017-09-08T16:47:57.211Z,16.10
2017-09-08T16:50:24.833Z,16.10
2017-09-08T16:52:52.409Z,16.10
2017-09-08T16:55:20.142Z,16.00
2017-09-08T16:57:48.685Z,16.00
2017-09-08T17:00:16.297Z,16.00
2017-09-08T17:02:43.946Z,15.90
2017-09-08T17:05:12.426Z,15.80
2017-09-08T17:07:40.009Z,15.80
2017-09-08T17:10:07.598Z,15.80
2017-09-08T17:12:35.205Z,15.80
2017-09-08T17:15:03.569Z,15.70
2017-09-08T17:17:31.954Z,15.60
2017-09-08T17:20:00.326Z,15.60
2017-09-08T17:22:28.674Z,15.50
2017-09-08T17:24:56.294Z,15.50
2017-09-08T17:27:23.878Z,15.40
2017-09-08T17:29:51.462Z,15.40
2017-09-08T17:32:19.126Z,15.40
2017-09-08T17:34:46.814Z,15.40
2017-09-08T17:37:14.464Z,15.40
2017-09-08T17:39:42.881Z,15.30
2017-09-08T17:42:10.506Z,15.30
2017-09-08T17:44:38.852Z,15.30
2017-09-08T17:47:06.493Z,15.30
2017-09-08T17:49:34.082Z,15.20
2017-09-08T17:52:02.513Z,15.20
2017-09-08T17:54:30.450Z,15.10
2017-09-08T17:56:58.821Z,15.20
2017-09-08T17:59:27.202Z,15.20
2017-09-08T18:01:55.780Z,15.20
2017-09-08T18:04:24.169Z,15.20
2017-09-08T18:06:51.753Z,15.20
2017-09-08T18:09:19.381Z,15.10
2017-09-08T18:11:47.737Z,15.00
2017-09-08T18:14:15.420Z,15.00
2017-09-08T18:16:43.049Z,15.00
2017-09-08T18:19:10.629Z,15.10
2017-09-08T18:21:38.985Z,15.20
2017-09-08T18:24:06.607Z,15.20
2017-09-08T18:26:34.203Z,15.20
2017-09-08T18:29:02.093Z,15.30
2017-09-08T18:31:29.685Z,15.30
2017-09-08T18:33:57.675Z,15.30
2017-09-08T18:36:25.305Z,15.20
2017-09-08T18:38:52.887Z,15.20
2017-09-08T18:41:20.493Z,15.10
2017-09-08T18:43:49.047Z,14.90
2017-09-08T18:46:16.742Z,14.90
2017-09-08T18:48:45.117Z,14.90
2017-09-08T18:51:13.526Z,14.90
2017-09-08T18:53:41.114Z,14.90
2017-09-08T18:56:08.714Z,14.80
2017-09-08T18:58:37.246Z,14.80
2017-09-08T19:01:04.866Z,14.80
2017-09-08T19:03:32.452Z,14.80
2017-09-08T19:06:00.278Z,14.90
2017-09-08T19:08:28.631Z,14.90
2017-09-08T19:10:56.217Z,14.90
2017-09-08T19:13:24.690Z,14.90
2017-09-08T19:15:53.041Z,14.80
2017-09-08T19:18:20.626Z,14.80
2017-09-08T19:20:49.205Z,14.70
2017-09-08T19:23:17.585Z,14.80
2017-09-08T19:25:45.966Z,14.90
2017-09-08T19:28:14.353Z,14.80
2017-09-08T19:30:41.933Z,14.80
2017-09-08T19:33:09.521Z,14.70
2017-09-08T19:35:37.125Z,14.80
2017-09-08T19:38:04.709Z,14.80
2017-09-08T19:40:32.475Z,14.80
2017-09-08T19:43:00.058Z,14.90
2017-09-08T19:45:27.657Z,15.00
2017-09-08T19:47:56.053Z,14.90
2017-09-08T19:50:23.707Z,14.90
2017-09-08T19:52:52.054Z,14.80
2017-09-08T19:55:19.838Z,14.80
2017-09-08T19:57:48.189Z,15.00
2017-09-08T20:00:15.878Z,15.00
2017-09-08T20:02:44.282Z,15.00
2017-09-08T20:05:11.862Z,14.90
2017-09-08T20:07:39.449Z,14.90
2017-09-08T20:10:07.856Z,14.80
2017-09-08T20:12:36.337Z,14.50
2017-09-08T20:15:03.917Z,14.50
2017-09-08T20:17:31.710Z,14.50
2017-09-08T20:19:59.297Z,14.50
2017-09-08T20:22:27.650Z,14.50
2017-09-08T20:24:55.343Z,14.50
2017-09-08T20:27:22.926Z,14.60
2017-09-08T20:29:50.501Z,14.70
2017-09-08T20:32:18.334Z,14.70
2017-09-08T20:34:46.710Z,14.50
2017-09-08T20:37:14.361Z,14.50
2017-09-08T20:39:42.757Z,14.30
2017-09-08T20:42:10.338Z,14.30
2017-09-08T20:44:37.956Z,14.10
2017-09-08T20:47:06.442Z,14.00
2017-09-08T20:49:34.786Z,13.90
2017-09-08T20:52:02.380Z,13.90
2017-09-08T20:54:30.150Z,13.90
2017-09-08T20:56:57.742Z,13.90
2017-09-08T20:59:25.334Z,13.90
2017-09-08T21:01:53.115Z,13.90
2017-09-08T21:04:21.470Z,14.00
2017-09-08T21:06:49.154Z,14.00
2017-09-08T21:09:17.573Z,14.10
2017-09-08T21:11:45.162Z,14.10
2017-09-08T21:14:12.758Z,14.10
2017-09-08T21:16:41.134Z,14.20
2017-09-08T21:19:08.735Z,14.20
2017-09-08T21:21:36.445Z,14.30
2017-09-08T21:24:04.810Z,14.20
2017-09-08T21:26:33.201Z,14.20
2017-09-08T21:29:01.701Z,14.30
2017-09-08T21:31:29.298Z,14.20
2017-09-08T21:33:56.889Z,14.20
2017-09-08T21:36:25.487Z,14.10
2017-09-08T21:38:53.073Z,14.10
2017-09-08T21:41:20.662Z,14.10
2017-09-08T21:43:48.465Z,14.10
2017-09-08T21:46:16.817Z,14.10
2017-09-08T21:48:44.402Z,14.10
2017-09-08T21:51:12.877Z,14.10
2017-09-08T21:53:41.245Z,14.10
2017-09-08T21:56:09.650Z,14.10
2017-09-08T21:58:37.299Z,14.10
2017-09-08T22:01:04.959Z,14.10
2017-09-08T22:03:33.592Z,14.10
2017-09-08T22:06:01.305Z,14.00
2017-09-08T22:08:29.681Z,14.20
2017-09-08T22:10:58.154Z,14.30
2017-09-08T22:13:26.534Z,14.20
2017-09-08T22:15:54.893Z,14.30
2017-09-08T22:18:22.574Z,14.20
2017-09-08T22:20:50.949Z,14.40
2017-09-08T22:23:19.533Z,14.40
2017-09-08T22:25:47.912Z,14.30
2017-09-08T22:28:16.262Z,14.40
